Etusivu
METAR-TAF:

METAR-TAF

Lentoasemat :

Rand Airport

Germiston, Etelä-Afrikka

Leveyspiiri: 26-14-33S, Pituuspiiri: 028-09-04E, korkeus merenpinnasta: 1671 m

Tämänhetkinen sää

Tämä raportti tehtiin 22 tuntia ja 46 minuuttia sitten, kello 07.00 UTC
Tuuli 4 kn etelästä/lounaasta
Lämpötila 13°C
Kosteus 30%
Ilmanpaine 1031 hPa
Näkyvyys 10 km tai enemmän
ei pilviä alle 1500 m:ssä eikä cumulonimbus-pilviä

METAR: FAGM 130700Z 20004KT CAVOK 13/M04 Q1031

Aika: 07:46 (05:46 UTC)


TAF: puuttuu

Säähavainnot ja -ennusteet yli 4000 lentoasemalta (METAR- ja TAF-raportit).

Käytössä olevat sääasemat on merkitty karttaan keltaisilla ja punaisilla pisteillä.

Aseta hiiri pisteen päälle nähdäksesi sääaseman nimen.

Klikkaa sitten nähdäksesi säähavainnot ja -ennusteet.

Kartan vaihtaminen: klikkaa mustalla rastilla varustettuja vihreitä pisteitä, niin voit zoomata sisään; viivalla varustettua vihreää pistettä, niin voit zoomata ulos tai vihreitä nuolia, niin pääset viereisille kartoille.


METAR-TAF: